Ocala, FL (34481)

2:26 PM EDT on July 24, 2016 (GMT -0400)
Longleaf | | Change Station

Elev 79 ft 29.12 °N, 82.28 °W | Updated 1 minute ago

Scattered Clouds
Scattered Clouds
96.1 °F
Feels Like 109 °F
N
3.2
Wind Variable Wind from East

Today
High -- | Low -- °F
--% Chance of Precip.
Yesterday
High -- | Low -- °F
Precip. -- in
Pressure 30.03 in
Visibility 10.0 miles
Clouds Scattered Clouds 7000 ft
Heat Index 109 °F
Dew Point 75 °F
Humidity 51%
Rainfall 0.00 in
Snow Depth Not available.
6:45 AM 8:25 PM
Waning Gibbous, 74% visible
METAR KOCF 241750Z VRB04KT 10SM SCT070 34/19 A3003
Pressure 30.03 in
Visibility 10.0 miles
Clouds Scattered Clouds 7000 ft
Heat Index 109 °F
Dew Point 75 °F
Humidity 51%
Rainfall 0.00 in
Snow Depth Not available.
6:45 AM 8:25 PM
Waning Gibbous, 74% visible
METAR KOCF 241750Z VRB04KT 10SM SCT070 34/19 A3003

10-Day Weather Forecast

Almanac

Astronomy

Jul. 24, 2016 Rise Set
Actual Time
Civil Twilight
Nautical Twilight
Astronomical Twilight
Moon
Length of Visible Light
Length of Day
Tomorrow will be .
, % of the Moon is Illuminated

Today's Extremes

State Highs State Lows

Community

WunderPhotos

Upload Photos

1,927,151 photos uploaded!

WunderBlog® & News

Nearby

Air Quality

  Air Quality AQ Index Pollutant
Not available.

Snow Depth

Station Depth Elevation

Earthquake Activity

City Distance Mag. Time & Date
Minimum magnitude displayed is 2.5.

Coastal Water Temperatures

Place Temperature

Stations

Nearby Weather Stations

Station Location Temp. Windchill Dew Point Humidity Wind Precip. Elev Updated Type
                   

Watches & Warnings

There are currently no watches in effect.